Time;durP1;ratioP1;P1;durP2;ratioP2;P2;SDS_P1;SDS_P2;PMS_P1;PMS_P2;Temp;Humidity;BMP_temperature;BMP_pressure;BME280_temperature;BME280_humidity;BME280_pressure;Samples;Min_cycle;Max_cycle;Signal;HPM_P1;HPM_P2
2022/03/03 00:01:32;;;;;;;20.10;12.77;;;1.60;66.60;;;2.24;54.03;97849.41;6236280;23;20027;-36
2022/03/03 00:04:00;;;;;;;20.63;12.47;;;1.60;66.70;;;2.26;53.72;97845.72;6234543;23;20025;-35
2022/03/03 00:06:28;;;;;;;21.47;12.40;;;1.70;66.40;;;2.30;53.99;97846.34;6234965;23;20020;-35
2022/03/03 00:08:56;;;;;;;19.43;11.77;;;1.70;66.20;;;2.33;54.22;97849.63;6234488;23;20329;-35
2022/03/03 00:11:24;;;;;;;16.47;11.10;;;1.80;65.90;;;2.38;53.71;97848.47;6234166;23;20016;-35
2022/03/03 00:13:52;;;;;;;19.67;11.30;;;1.90;65.40;;;2.44;53.68;97848.03;6234542;23;20218;-35
2022/03/03 00:16:20;;;;;;;19.33;10.63;;;1.90;64.80;;;2.52;53.64;97854.47;6234833;23;20031;-35
2022/03/03 00:18:48;;;;;;;17.73;12.20;;;2.10;64.30;;;2.61;53.25;97852.13;6235743;23;20027;-35
2022/03/03 00:21:16;;;;;;;17.77;11.30;;;2.20;63.90;;;2.67;52.99;97851.69;6236201;23;20016;-35
2022/03/03 00:23:44;;;;;;;19.53;11.60;;;2.30;63.50;;;2.70;53.07;97852.34;6234923;23;20012;-35
2022/03/03 00:26:12;;;;;;;20.73;11.00;;;2.30;63.10;;;2.73;53.38;97852.13;6235565;23;20012;-35
2022/03/03 00:28:40;;;;;;;18.73;10.73;;;2.30;63.00;;;2.76;53.13;97857.16;6236109;23;20016;-35
2022/03/03 00:31:08;;;;;;;16.50;11.27;;;2.30;63.60;;;2.80;52.61;97852.53;6235506;23;20024;-35
2022/03/03 00:33:36;;;;;;;19.00;10.80;;;2.40;62.40;;;2.81;52.86;97856.00;6237020;23;20012;-35
2022/03/03 00:36:04;;;;;;;20.90;10.73;;;2.40;62.20;;;2.69;52.96;97852.44;6236854;23;20020;-35
2022/03/03 00:38:32;;;;;;;25.43;11.57;;;2.20;62.70;;;2.63;52.62;97852.88;6237529;23;20027;-35
2022/03/03 00:41:00;;;;;;;21.20;13.20;;;2.10;62.80;;;2.56;52.87;97855.09;6235990;23;20322;-34
2022/03/03 00:43:28;;;;;;;23.20;12.83;;;2.00;63.00;;;2.56;52.56;97849.84;6236829;23;20424;-35
2022/03/03 00:45:55;;;;;;;18.57;12.10;;;2.10;62.90;;;2.52;52.66;97857.09;6236479;23;20020;-35
2022/03/03 00:48:23;;;;;;;16.63;11.33;;;2.00;63.00;;;2.51;52.91;97863.28;6236116;23;20019;-35
2022/03/03 00:50:51;;;;;;;19.30;13.20;;;2.00;63.00;;;2.51;52.72;97852.75;6236549;23;20020;-35
2022/03/03 00:53:19;;;;;;;21.53;11.93;;;2.00;62.80;;;2.52;52.69;97864.09;6236780;23;20032;-35
2022/03/03 00:55:47;;;;;;;18.27;12.20;;;2.00;63.00;;;2.50;52.64;97861.59;6235744;23;20210;-35
2022/03/03 00:58:15;;;;;;;18.87;11.07;;;2.00;63.20;;;2.47;52.54;97867.06;6209955;23;20034;-35
2022/03/03 01:00:42;;;;;;;18.63;11.53;;;2.00;62.90;;;2.43;52.68;97875.28;6236233;23;20016;-35
2022/03/03 01:03:10;;;;;;;21.03;13.17;;;1.90;63.00;;;2.42;52.91;97873.56;6236262;23;20020;-36
2022/03/03 01:05:38;;;;;;;18.40;12.20;;;1.90;63.10;;;2.40;52.51;97876.31;6236775;23;20020;-35
2022/03/03 01:08:10;;;;;;;22.17;12.07;;;1.90;63.10;;;2.34;53.19;97867.03;6236692;23;20019;-35
2022/03/03 01:10:40;;;;;;;20.00;11.37;;;1.70;64.00;;;2.29;52.74;97866.53;6234274;23;20015;-35
2022/03/03 01:13:07;;;;;;;18.33;11.53;;;1.60;64.40;;;2.22;53.10;97865.25;6238431;23;20012;-35
2022/03/03 01:15:35;;;;;;;19.47;11.40;;;1.50;64.60;;;2.20;52.65;97858.44;6235670;23;20035;-35
2022/03/03 01:18:03;;;;;;;18.93;12.07;;;1.50;64.10;;;2.20;52.88;97853.19;6235293;23;20027;-35
2022/03/03 01:20:31;;;;;;;17.47;11.50;;;1.60;63.70;;;2.20;52.64;97843.50;6236843;23;20028;-35
2022/03/03 01:22:59;;;;;;;17.53;11.30;;;1.60;63.40;;;2.16;52.83;97842.03;6235871;23;20038;-35
2022/03/03 01:25:27;;;;;;;18.90;11.17;;;1.50;64.00;;;2.13;53.41;97831.72;6236530;23;20184;-35
2022/03/03 01:27:55;;;;;;;20.17;12.03;;;1.40;64.90;;;2.07;53.07;97819.00;6236507;23;20222;-35
2022/03/03 01:30:23;;;;;;;19.40;12.40;;;1.40;65.80;;;2.03;53.50;97820.16;6235223;23;20030;-36
2022/03/03 01:32:51;;;;;;;20.30;12.70;;;1.40;65.40;;;2.06;53.33;97815.56;6237138;23;20027;-35
2022/03/03 01:35:19;;;;;;;22.90;12.20;;;1.40;65.20;;;2.07;53.48;97817.22;6234433;23;20022;-35
2022/03/03 01:37:47;;;;;;;20.63;12.37;;;1.50;65.20;;;2.07;53.66;97819.00;6235359;23;20034;-35
2022/03/03 01:40:15;;;;;;;18.40;11.77;;;1.40;65.10;;;2.09;53.72;97815.34;6210172;23;20016;-35
2022/03/03 01:42:42;;;;;;;21.10;12.60;;;1.50;65.00;;;2.12;53.48;97816.94;6236203;23;20024;-35
2022/03/03 01:45:10;;;;;;;19.17;12.70;;;1.60;64.60;;;2.14;53.26;97817.66;6236001;23;20012;-35
2022/03/03 01:47:38;;;;;;;18.93;12.20;;;1.60;64.10;;;2.13;53.54;97823.84;6233536;23;20038;-35
2022/03/03 01:50:06;;;;;;;20.63;11.87;;;1.60;63.60;;;2.10;53.54;97827.53;6236264;23;20027;-35
2022/03/03 01:52:34;;;;;;;19.80;12.10;;;1.50;64.10;;;2.05;53.07;97827.00;6209653;23;20318;-35
2022/03/03 01:55:03;;;;;;;21.47;12.23;;;1.50;64.10;;;2.05;53.48;97828.78;6233715;23;20456;-35
2022/03/03 01:57:32;;;;;;;19.97;12.43;;;1.50;64.00;;;2.06;53.11;97826.06;6235615;23;20037;-35
2022/03/03 02:00:00;;;;;;;20.20;11.77;;;1.50;63.80;;;2.08;53.56;97826.78;6209823;23;20022;-35
2022/03/03 02:02:39;;;;;;;20.30;11.10;;;1.60;64.00;;;2.09;53.28;97825.00;6245934;23;20217;-35
2022/03/03 02:05:07;;;;;;;21.60;12.73;;;1.50;64.10;;;2.07;53.44;97826.91;6234125;23;20352;-35
2022/03/03 02:07:35;;;;;;;21.03;12.47;;;1.50;63.80;;;2.04;53.47;97832.38;6236334;23;20020;-35
2022/03/03 02:10:05;;;;;;;19.23;12.20;;;1.50;64.10;;;2.00;53.61;97823.00;6235282;23;20016;-35
2022/03/03 02:12:33;;;;;;;18.20;12.20;;;1.50;64.50;;;1.96;53.59;97831.09;6236396;23;20460;-35
2022/03/03 02:15:01;;;;;;;21.60;12.60;;;1.40;64.20;;;1.96;53.17;97828.47;6209481;23;20016;-35
2022/03/03 02:17:29;;;;;;;20.53;13.13;;;1.40;64.40;;;1.96;53.36;97827.63;6236755;23;20226;-35
2022/03/03 02:19:57;;;;;;;20.90;13.33;;;1.40;64.70;;;1.93;53.50;97823.41;6235350;23;20016;-35
2022/03/03 02:22:25;;;;;;;19.43;13.43;;;1.30;65.10;;;1.88;53.66;97822.91;6244575;23;20250;-35
2022/03/03 02:24:53;;;;;;;21.00;13.17;;;1.30;65.10;;;1.85;53.46;97817.00;6234554;23;20034;-35
2022/03/03 02:27:21;;;;;;;20.30;13.47;;;1.30;64.90;;;1.80;53.25;97822.53;6235470;23;20031;-35
2022/03/03 02:29:50;;;;;;;22.30;13.10;;;1.30;65.00;;;1.76;53.44;97821.06;6232966;23;20030;-35
2022/03/03 02:32:18;;;;;;;22.13;13.27;;;1.20;64.80;;;1.74;53.91;97822.94;6210013;23;20241;-35
2022/03/03 02:34:48;;;;;;;19.87;12.63;;;1.20;64.70;;;1.72;53.83;97823.03;6236724;23;20018;-35
2022/03/03 02:37:16;;;;;;;17.47;11.73;;;1.20;65.00;;;1.70;53.63;97819.69;6232924;23;20023;-35
2022/03/03 02:39:44;;;;;;;21.67;12.60;;;1.20;65.10;;;1.68;53.86;97815.50;6235171;23;20024;-35
2022/03/03 02:42:12;;;;;;;21.30;12.17;;;1.10;65.20;;;1.65;53.80;97819.16;6236122;23;20012;-35
2022/03/03 02:44:40;;;;;;;20.63;11.97;;;1.10;65.20;;;1.64;53.41;97822.72;6208359;23;20023;-35
2022/03/03 02:47:08;;;;;;;21.47;12.73;;;1.10;65.00;;;1.62;53.82;97815.91;6236012;23;20020;-35
2022/03/03 02:49:36;;;;;;;21.27;13.03;;;1.10;65.40;;;1.59;53.86;97822.19;6235722;23;20012;-36
2022/03/03 02:52:04;;;;;;;16.17;11.97;;;1.00;65.30;;;1.54;53.56;97822.50;6235986;23;20022;-35
2022/03/03 02:54:32;;;;;;;18.10;12.13;;;1.00;65.20;;;1.50;53.72;97810.50;6233845;23;20026;-35
2022/03/03 03:00:00;;;;;;;24.10;12.97;;;0.90;65.90;;;1.44;53.56;97800.41;6169037;23;20040;-35
2022/03/03 03:02:28;;;;;;;21.67;12.13;;;0.90;65.80;;;1.44;54.35;97802.22;6235016;23;20016;-35
2022/03/03 03:04:56;;;;;;;22.97;12.23;;;0.90;66.20;;;1.41;54.30;97805.03;6234062;23;20034;-35
2022/03/03 03:07:24;;;;;;;18.43;13.00;;;0.80;65.90;;;1.36;54.53;97803.53;6235161;23;20205;-35
2022/03/03 03:09:52;;;;;;;21.80;12.63;;;0.80;66.00;;;1.26;54.15;97802.47;6235548;23;20318;-35
2022/03/03 03:12:19;;;;;;;20.07;12.23;;;0.60;67.00;;;1.20;54.22;97791.50;6236280;23;20020;-35
2022/03/03 03:14:47;;;;;;;19.20;12.57;;;0.50;66.90;;;1.18;54.62;97794.22;6235760;23;20013;-35
2022/03/03 03:17:15;;;;;;;21.07;12.67;;;0.60;66.60;;;1.17;54.46;97801.25;6233737;23;20206;-35
2022/03/03 03:19:43;;;;;;;19.10;11.83;;;0.60;66.20;;;1.13;53.77;97798.94;6234296;23;20326;-35
2022/03/03 03:22:11;;;;;;;23.07;12.43;;;0.50;66.20;;;1.09;54.65;97786.97;6235264;23;20024;-35
2022/03/03 03:24:38;;;;;;;22.60;13.33;;;0.50;67.10;;;1.06;54.97;97788.00;6234623;23;20024;-35
2022/03/03 03:27:06;;;;;;;22.47;13.33;;;0.40;67.50;;;1.07;54.20;97773.97;6235133;23;20012;-35
2022/03/03 03:29:34;;;;;;;23.00;13.23;;;0.50;67.70;;;1.13;55.06;97770.09;6234356;23;20012;-35
2022/03/03 03:32:03;;;;;;;22.03;12.37;;;0.50;67.70;;;1.21;55.19;97772.22;6235250;23;20018;-35
2022/03/03 03:34:31;;;;;;;26.13;13.13;;;0.70;67.70;;;1.29;54.88;97775.19;6208111;23;20282;-35
2022/03/03 03:36:58;;;;;;;21.50;12.77;;;0.80;67.50;;;1.34;54.99;97768.69;6233303;23;20028;-36
2022/03/03 03:39:26;;;;;;;22.97;12.57;;;0.90;67.20;;;1.36;54.65;97766.00;6235857;23;20348;-35
2022/03/03 03:41:54;;;;;;;17.63;12.03;;;0.90;67.10;;;1.38;54.76;97761.47;6235695;23;20030;-34
2022/03/03 03:44:22;;;;;;;24.13;13.37;;;0.90;67.10;;;1.41;54.73;97763.88;6235556;23;20031;-34
2022/03/03 03:46:50;;;;;;;23.70;12.70;;;0.90;66.60;;;1.43;54.67;97759.38;6235629;23;20148;-34
2022/03/03 03:49:17;;;;;;;19.03;11.57;;;0.90;66.70;;;1.43;54.66;97758.53;6235990;23;20202;-34
2022/03/03 03:51:45;;;;;;;19.57;12.47;;;0.90;66.90;;;1.41;55.36;97749.94;6235444;23;20027;-34
2022/03/03 03:54:13;;;;;;;21.00;11.60;;;0.80;67.00;;;1.42;55.21;97754.25;6235083;23;20018;-34
2022/03/03 03:56:41;;;;;;;19.57;13.10;;;0.80;66.90;;;1.42;55.17;97747.22;6234457;23;20024;-34
2022/03/03 03:59:08;;;;;;;23.00;12.80;;;0.80;67.10;;;1.42;55.44;97749.84;6235103;23;20179;-34
2022/03/03 04:01:36;;;;;;;18.33;11.77;;;0.80;67.00;;;1.47;55.00;97750.34;6235850;23;20020;-34
2022/03/03 04:04:05;;;;;;;22.40;12.83;;;0.90;66.60;;;1.53;54.75;97754.34;6237027;23;20016;-34
2022/03/03 04:06:33;;;;;;;20.63;13.17;;;1.00;66.30;;;1.54;54.62;97743.75;6236356;23;20020;-34
2022/03/03 04:09:01;;;;;;;22.00;12.60;;;1.10;66.10;;;1.57;54.78;97748.81;6235630;23;20022;-34
2022/03/03 04:11:29;;;;;;;22.80;13.90;;;1.10;66.10;;;1.56;55.08;97752.38;6236415;23;20038;-34
2022/03/03 04:13:57;;;;;;;23.53;12.70;;;1.00;66.10;;;1.53;54.87;97744.72;6235961;23;20022;-34
2022/03/03 04:16:26;;;;;;;23.63;12.20;;;0.90;66.30;;;1.54;54.52;97743.75;6237254;23;20344;-34
2022/03/03 04:18:54;;;;;;;20.90;12.07;;;1.00;66.10;;;1.52;54.52;97744.81;6236026;23;20028;-34
2022/03/03 04:21:22;;;;;;;18.03;13.17;;;0.90;66.20;;;1.49;54.88;97745.88;6238163;23;20030;-34
2022/03/03 04:23:49;;;;;;;21.33;12.33;;;0.90;66.60;;;1.47;54.57;97739.03;6238707;23;20349;-34
2022/03/03 04:26:17;;;;;;;21.57;12.40;;;0.90;66.80;;;1.45;54.81;97747.00;6236812;23;20016;-34
2022/03/03 04:28:45;;;;;;;22.40;12.10;;;0.80;67.30;;;1.45;54.73;97746.16;6236416;23;20012;-34
2022/03/03 04:31:13;;;;;;;27.73;12.83;;;0.80;67.20;;;1.40;54.97;97749.09;6234867;23;20221;-34
2022/03/03 04:33:42;;;;;;;22.50;12.87;;;0.70;68.30;;;1.35;55.11;97749.38;6208715;23;20030;-34
2022/03/03 04:36:10;;;;;;;22.63;13.87;;;0.60;67.40;;;1.32;54.61;97746.16;6236570;23;20023;-34
2022/03/03 04:38:38;;;;;;;19.50;13.20;;;0.60;67.30;;;1.27;55.10;97749.06;6237729;23;20024;-34
2022/03/03 04:41:06;;;;;;;20.97;12.60;;;0.60;67.40;;;1.25;55.53;97744.84;6238562;23;20024;-34
2022/03/03 04:43:33;;;;;;;18.87;12.67;;;0.60;67.50;;;1.22;55.34;97742.41;6236113;23;20226;-34
2022/03/03 04:46:01;;;;;;;20.97;12.77;;;0.50;68.00;;;1.16;54.97;97751.53;6236343;23;20433;-34
2022/03/03 04:48:29;;;;;;;19.80;12.40;;;0.40;67.80;;;1.10;54.98;97744.06;6235014;23;20050;-34
2022/03/03 04:50:58;;;;;;;19.77;14.63;;;0.40;67.70;;;1.06;55.18;97750.44;6236688;23;20020;-34
2022/03/03 04:53:27;;;;;;;21.67;12.93;;;0.40;67.70;;;1.05;55.54;97739.13;6236962;23;20386;-34
2022/03/03 04:55:57;;;;;;;20.67;12.67;;;0.40;67.70;;;1.01;55.40;97742.91;6236740;23;20213;-35
2022/03/03 04:58:25;;;;;;;23.70;12.73;;;0.40;68.20;;;0.98;55.65;97735.22;6234114;23;20179;-34
2022/03/03 05:00:53;;;;;;;25.73;13.07;;;0.40;67.80;;;1.02;55.02;97738.50;6235486;23;20302;-34
2022/03/03 05:03:22;;;;;;;19.00;12.30;;;0.40;67.30;;;0.96;54.68;97730.06;6235448;23;20016;-34
2022/03/03 05:05:50;;;;;;;18.70;12.77;;;0.40;67.30;;;0.91;54.72;97739.16;6235205;23;20024;-34
2022/03/03 05:08:17;;;;;;;21.83;12.63;;;0.20;68.00;;;0.85;55.38;97727.28;6238173;23;20020;-34
2022/03/03 05:10:45;;;;;;;22.97;13.67;;;0.10;68.20;;;0.81;55.21;97714.50;6236915;23;20311;-34
2022/03/03 05:13:14;;;;;;;22.13;13.50;;;0.10;68.70;;;0.79;55.10;97719.81;6236460;23;20020;-34
2022/03/03 05:15:41;;;;;;;21.73;13.07;;;0.10;68.50;;;0.75;55.81;97708.69;6237287;23;20034;-35
2022/03/03 05:18:09;;;;;;;24.63;12.03;;;0.10;68.70;;;0.74;55.84;97707.03;6237762;23;20030;-34
2022/03/03 05:20:38;;;;;;;21.77;13.70;;;0.10;68.60;;;0.76;55.12;97706.94;6235721;23;20031;-34
2022/03/03 05:23:06;;;;;;;20.63;13.30;;;0.10;68.40;;;0.75;55.34;97702.63;6237085;23;20344;-34
2022/03/03 05:25:35;;;;;;;24.03;13.13;;;0.10;68.00;;;0.77;55.27;97705.97;6234938;23;20032;-34
2022/03/03 05:28:03;;;;;;;19.03;11.53;;;0.20;67.50;;;0.79;55.38;97711.97;6209499;23;20018;-34
2022/03/03 05:30:31;;;;;;;24.27;12.73;;;0.20;67.20;;;0.82;55.45;97710.94;6235832;23;20066;-34
2022/03/03 05:32:59;;;;;;;21.53;12.90;;;0.30;66.90;;;0.86;54.92;97713.25;6235702;23;20016;-34
2022/03/03 05:35:26;;;;;;;22.33;14.00;;;0.40;66.60;;;0.91;55.19;97720.81;6209303;23;20016;-34
2022/03/03 05:37:54;;;;;;;26.00;14.87;;;0.40;66.10;;;0.93;54.88;97726.78;6236372;23;20023;-34
2022/03/03 05:40:23;;;;;;;30.13;16.57;;;0.40;66.10;;;0.90;54.83;97713.91;6235323;23;20030;-34
2022/03/03 05:42:52;;;;;;;30.60;15.87;;;0.40;65.70;;;0.90;55.23;97714.75;6236656;23;20205;-34
2022/03/03 05:45:20;;;;;;;22.33;14.00;;;0.40;65.80;;;0.88;54.70;97711.38;6237689;23;20016;-34
2022/03/03 05:47:48;;;;;;;23.17;13.60;;;0.40;65.80;;;0.86;54.43;97709.81;6234598;23;20030;-34
2022/03/03 05:50:15;;;;;;;25.60;13.40;;;0.30;66.00;;;0.81;54.71;97702.22;6235321;23;20225;-34
2022/03/03 05:52:43;;;;;;;25.87;14.07;;;0.30;66.10;;;0.76;54.38;97697.28;6236738;23;20016;-34
2022/03/03 05:55:12;;;;;;;23.30;14.63;;;0.20;65.90;;;0.77;54.36;97698.94;6235729;23;20027;-34
2022/03/03 05:57:45;;;;;;;18.60;12.27;;;0.20;66.00;;;0.78;54.75;97698.03;6235815;23;20020;-34
2022/03/03 06:00:16;;;;;;;25.50;13.30;;;0.30;66.40;;;0.77;54.59;97703.34;6234861;23;20030;-35
2022/03/03 06:02:51;;;;;;;23.83;13.57;;;0.20;65.40;;;0.75;55.28;97698.22;6234071;23;20034;-35
2022/03/03 06:05:24;;;;;;;30.30;14.47;;;0.20;66.00;;;0.77;54.95;97696.34;6235364;23;20020;-34
2022/03/03 06:08:01;;;;;;;27.97;15.53;;;0.30;66.30;;;0.80;54.49;97699.72;6235341;23;20024;-34
2022/03/03 06:10:34;;;;;;;30.93;17.17;;;0.30;66.30;;;0.77;54.64;97700.75;6234493;23;20336;-34
2022/03/03 06:13:24;;;;;;;29.03;16.60;;;0.20;65.90;;;0.75;55.17;97703.44;6234768;23;20031;-35
2022/03/03 06:15:52;;;;;;;30.27;16.47;;;0.20;66.30;;;0.74;55.08;97703.56;6245777;23;20235;-35
2022/03/03 06:18:27;;;;;;;31.77;17.03;;;0.20;66.10;;;0.68;55.30;97703.94;6235587;23;20016;-34
2022/03/03 06:20:55;;;;;;;27.90;16.87;;;0.20;66.20;;;0.63;55.02;97706.88;6238880;23;20030;-34
2022/03/03 06:23:23;;;;;;;25.17;14.57;;;0.10;66.50;;;0.62;55.57;97701.72;6235817;23;20051;-35
2022/03/03 06:26:10;;;;;;;26.43;13.50;;;0.10;66.40;;;0.65;54.73;97705.00;6234898;23;20302;-35
2022/03/03 06:28:38;;;;;;;22.67;14.83;;;0.10;67.00;;;0.68;55.09;97703.94;6245654;23;20015;-34
2022/03/03 06:31:06;;;;;;;27.93;14.90;;;0.20;67.00;;;0.69;55.17;97701.22;6235682;23;20336;-35
2022/03/03 06:33:35;;;;;;;27.73;14.90;;;0.20;67.00;;;0.71;54.87;97703.75;6235545;23;20026;-35
2022/03/03 06:36:04;;;;;;;26.97;15.60;;;0.20;66.90;;;0.74;55.53;97703.56;6234458;23;20016;-34
2022/03/03 06:38:33;;;;;;;25.97;13.90;;;0.20;66.40;;;0.75;55.42;97702.63;6235292;23;20225;-35
2022/03/03 06:41:05;;;;;;;23.63;14.33;;;0.30;66.50;;;0.71;55.47;97690.66;6246078;23;20023;-34
2022/03/03 06:43:35;;;;;;;27.27;13.77;;;0.20;66.80;;;0.68;55.49;97683.84;6234599;23;20016;-34
2022/03/03 06:46:05;;;;;;;29.87;13.07;;;0.20;67.90;;;0.69;55.29;97666.34;6234364;23;20030;-35
2022/03/03 06:48:34;;;;;;;20.03;12.07;;;0.20;68.30;;;0.65;55.95;97655.22;6234759;23;20020;-35
2022/03/03 06:51:05;;;;;;;22.40;12.33;;;0.10;68.90;;;0.65;56.00;97646.50;6235181;23;20020;-35
2022/03/03 06:53:39;;;;;;;22.57;12.77;;;0.10;68.70;;;0.63;55.93;97640.53;6243887;23;20229;-35
2022/03/03 06:56:10;;;;;;;24.20;13.00;;;0.10;69.00;;;0.66;56.00;97638.56;6245650;23;20217;-35
2022/03/03 06:58:39;;;;;;;26.63;13.70;;;0.20;68.20;;;0.73;56.31;97650.31;6234412;23;20038;-35
2022/03/03 07:01:10;;;;;;;24.90;12.93;;;0.30;67.70;;;0.76;56.04;97639.63;6209112;23;20024;-37
2022/03/03 07:03:41;;;;;;;24.87;13.53;;;0.30;68.00;;;0.82;56.61;97640.19;6244004;23;20394;-35
2022/03/03 07:06:09;;;;;;;28.60;14.37;;;0.40;67.70;;;0.87;56.08;97638.91;6232196;23;20334;-35
2022/03/03 07:08:38;;;;;;;23.57;13.20;;;0.50;67.00;;;0.94;55.97;97642.81;6234377;23;20225;-38
2022/03/03 07:11:07;;;;;;;19.93;12.50;;;0.50;66.70;;;1.03;55.60;97656.25;6208826;23;20340;-36
2022/03/03 07:13:38;;;;;;;23.57;12.90;;;0.60;66.00;;;1.07;55.90;97668.25;6233616;23;20192;-36
2022/03/03 07:16:46;;;;;;;23.20;13.33;;;0.70;65.60;;;1.11;55.61;97677.59;6235448;23;20694;-35
2022/03/03 07:19:25;;;;;;;23.23;14.23;;;0.70;65.50;;;1.18;55.28;97668.34;6245200;23;20030;-35
2022/03/03 07:22:35;;;;;;;25.97;15.13;;;0.80;65.40;;;1.26;55.20;97654.72;6245592;23;20012;-36
2022/03/03 07:25:14;;;;;;;24.30;14.47;;;0.90;66.10;;;1.32;55.01;97667.44;6235689;23;20016;-35
2022/03/03 07:27:46;;;;;;;28.63;14.37;;;0.90;66.00;;;1.37;55.33;97666.16;6208790;23;20020;-35
2022/03/03 07:30:16;;;;;;;23.43;13.87;;;1.00;65.80;;;1.42;55.08;97680.78;6246109;23;20013;-35
2022/03/03 07:33:10;;;;;;;26.33;15.73;;;1.10;65.60;;;1.47;56.14;97679.50;6233940;23;20363;-35
2022/03/03 07:35:43;;;;;;;26.30;15.82;;;1.10;66.40;;;1.52;55.75;97689.72;6246477;23;20012;-35
2022/03/03 07:38:23;;;;;;;26.77;16.60;;;1.20;66.30;;;1.58;55.51;97682.25;6246472;23;20016;-35
2022/03/03 07:40:52;;;;;;;26.90;17.13;;;1.30;66.40;;;1.63;55.52;97686.34;6248205;23;20024;-36
2022/03/03 07:43:20;;;;;;;28.17;17.33;;;1.30;66.20;;;1.67;55.91;97683.44;6236434;23;20023;-35
2022/03/03 07:45:48;;;;;;;24.90;16.23;;;1.30;66.30;;;1.72;55.93;97677.84;6234572;23;20020;-35
2022/03/03 07:48:16;;;;;;;25.90;14.90;;;1.40;66.30;;;1.79;55.72;97683.53;6207211;23;20021;-35
2022/03/03 07:50:44;;;;;;;27.33;15.00;;;1.50;66.70;;;1.83;55.99;97680.59;6234598;23;20209;-34
2022/03/03 07:53:13;;;;;;;26.97;14.70;;;1.50;66.90;;;1.88;55.94;97691.63;6235142;23;20183;-34
2022/03/03 07:55:53;;;;;;;25.47;14.97;;;1.60;66.90;;;1.92;56.43;97686.97;6237118;23;20027;-34
2022/03/03 07:58:29;;;;;;;25.70;14.00;;;1.60;67.60;;;1.93;55.98;97683.41;6246169;23;20015;-34
2022/03/03 08:01:01;;;;;;;26.43;15.57;;;1.50;67.00;;;1.92;56.02;97679.09;6222120;23;20024;-34
2022/03/03 08:03:31;;;;;;;22.47;14.33;;;1.60;68.30;;;1.95;56.35;97686.78;6246986;23;20016;-34
2022/03/03 08:05:59;;;;;;;28.43;14.83;;;1.60;67.70;;;1.95;56.31;97678.88;6208530;23;20034;-34
2022/03/03 08:08:30;;;;;;;28.03;14.93;;;1.60;67.50;;;1.97;56.09;97675.19;6234768;23;20020;-34
2022/03/03 08:11:07;;;;;;;26.23;14.53;;;1.60;67.70;;;2.00;56.30;97673.31;6237176;23;20020;-34
2022/03/03 08:13:36;;;;;;;24.17;14.03;;;1.60;67.60;;;2.03;56.18;97673.09;6246696;23;20023;-34
2022/03/03 08:16:04;;;;;;;28.43;15.40;;;1.60;67.40;;;2.04;55.86;97666.91;6236489;23;20012;-34
2022/03/03 08:18:35;;;;;;;24.77;13.77;;;1.70;67.40;;;2.08;55.81;97681.50;6236173;23;20024;-34
2022/03/03 08:21:06;;;;;;;27.93;15.47;;;1.70;67.00;;;2.12;56.23;97685.59;6238151;23;20344;-35
2022/03/03 08:23:34;;;;;;;27.57;15.97;;;1.80;66.80;;;2.15;56.41;97680.13;6235841;23;20314;-34
2022/03/03 08:26:03;;;;;;;31.00;17.07;;;1.80;67.40;;;2.19;56.24;97683.38;6235528;23;20034;-35
2022/03/03 08:28:32;;;;;;;27.17;14.53;;;1.80;67.70;;;2.23;56.30;97682.22;6236560;23;20034;-35
2022/03/03 08:31:03;;;;;;;24.20;14.77;;;1.90;67.70;;;2.26;56.25;97674.13;6235952;23;20245;-34
2022/03/03 08:34:35;;;;;;;27.37;15.83;;;1.90;67.60;;;2.30;57.01;97688.72;6249330;23;20311;-35
2022/03/03 08:37:11;;;;;;;20.27;13.30;;;2.00;68.10;;;2.36;56.18;97680.38;6252976;23;20012;-35
2022/03/03 08:39:42;;;;;;;24.23;14.73;;;2.10;67.30;;;2.41;56.13;97682.72;6262894;23;20204;-34
2022/03/03 08:42:15;;;;;;;26.00;15.40;;;2.10;67.10;;;2.47;56.31;97684.91;6252465;23;20012;-34
2022/03/03 08:44:52;;;;;;;37.10;15.53;;;2.20;66.80;;;2.51;56.32;97679.31;6251394;23;20022;-34
2022/03/03 08:47:22;;;;;;;30.43;14.90;;;2.20;66.70;;;2.55;55.98;97683.38;6250828;23;20024;-34
2022/03/03 08:49:59;;;;;;;30.13;16.13;;;2.30;66.50;;;2.62;56.38;97690.81;6250910;23;20326;-35
2022/03/03 08:52:47;;;;;;;27.60;15.27;;;2.30;66.40;;;2.67;56.08;97688.72;6261608;23;20227;-35
2022/03/03 08:55:15;;;;;;;31.97;17.43;;;2.40;65.90;;;2.70;55.57;97685.88;6225588;23;20016;-34
2022/03/03 08:57:43;;;;;;;29.53;16.93;;;2.40;65.90;;;2.69;56.15;97690.28;6251442;23;20027;-35
2022/03/03 09:00:14;;;;;;;31.10;18.47;;;2.50;66.10;;;2.73;56.06;97697.00;6249841;23;20024;-35
2022/03/03 09:02:45;;;;;;;27.80;17.07;;;2.50;66.10;;;2.79;56.11;97705.38;6221621;23;20031;-35
2022/03/03 09:05:14;;;;;;;30.83;16.47;;;2.60;66.10;;;2.81;56.05;97693.84;6226295;23;20012;-35
2022/03/03 09:07:43;;;;;;;29.27;16.03;;;2.60;66.80;;;2.85;56.02;97695.28;6248643;23;20020;-35
2022/03/03 09:10:12;;;;;;;31.87;16.30;;;2.60;65.60;;;2.88;55.65;97697.66;6249229;23;20027;-35
2022/03/03 09:12:41;;;;;;;31.10;16.63;;;2.70;65.10;;;2.93;55.70;97694.72;6249305;23;20027;-35
2022/03/03 09:15:10;;;;;;;26.73;15.57;;;2.70;64.70;;;2.98;55.61;97692.56;6220672;23;20326;-35
2022/03/03 09:17:39;;;;;;;27.10;15.97;;;2.70;64.60;;;3.02;56.06;97695.81;6249346;23;20026;-35
2022/03/03 09:20:14;;;;;;;24.07;16.03;;;2.80;64.10;;;3.03;55.25;97694.88;6247815;23;20023;-35
2022/03/03 09:22:44;;;;;;;27.23;17.17;;;2.80;64.20;;;3.05;55.33;97704.34;6255828;23;20019;-35
2022/03/03 09:25:13;;;;;;;29.07;16.60;;;2.80;64.30;;;3.11;54.89;97700.41;6252311;23;20018;-35
2022/03/03 09:27:41;;;;;;;29.27;16.60;;;2.90;64.00;;;3.09;55.19;97703.16;6251865;23;20026;-35
2022/03/03 09:30:10;;;;;;;29.30;17.00;;;2.80;63.80;;;3.13;54.87;97698.50;6260507;23;20210;-35
2022/03/03 09:32:39;;;;;;;25.33;15.57;;;2.90;62.80;;;3.18;54.70;97698.16;6249439;23;20333;-35
2022/03/03 09:35:08;;;;;;;25.73;15.47;;;2.90;62.40;;;3.18;54.56;97704.28;6242758;23;20223;-35
2022/03/03 09:37:36;;;;;;;25.43;15.43;;;3.00;62.60;;;3.14;54.65;97711.56;6239362;23;20020;-35
2022/03/03 09:40:08;;;;;;;29.50;17.53;;;2.90;63.00;;;3.20;54.83;97697.13;6239585;23;20027;-35
2022/03/03 09:42:37;;;;;;;28.67;17.23;;;2.90;63.10;;;3.24;54.93;97703.81;6250191;23;20038;-35
2022/03/03 09:45:08;;;;;;;26.40;15.90;;;3.00;63.30;;;3.28;54.92;97693.91;6235009;23;20590;-35
2022/03/03 09:47:37;;;;;;;30.17;16.90;;;3.00;62.80;;;3.31;54.87;97693.66;6246587;23;20024;-34
2022/03/03 09:50:08;;;;;;;27.67;16.70;;;3.10;63.20;;;3.38;54.71;97688.81;6236546;23;20024;-34
2022/03/03 09:52:36;;;;;;;28.23;17.20;;;3.20;63.30;;;3.39;54.54;97691.28;6236822;23;20255;-34
2022/03/03 09:55:05;;;;;;;32.67;18.17;;;3.20;62.60;;;3.44;54.83;97685.69;6210526;23;20019;-34
2022/03/03 09:57:35;;;;;;;28.23;15.80;;;3.20;62.70;;;3.50;54.61;97682.59;6235788;23;20027;-35
2022/03/03 10:00:08;;;;;;;31.37;16.20;;;3.30;62.90;;;3.58;54.52;97679.38;6235243;23;20036;-34
2022/03/03 10:03:08;;;;;;;29.43;17.03;;;3.40;62.70;;;3.67;54.42;97674.25;6236416;23;20028;-34
2022/03/03 10:05:51;;;;;;;27.63;15.93;;;3.50;62.30;;;3.75;54.20;97679.78;6245974;23;20016;-34
2022/03/03 10:08:24;;;;;;;27.90;16.30;;;3.50;62.00;;;3.81;53.76;97681.09;6245078;23;20318;-34
2022/03/03 10:11:02;;;;;;;31.93;18.37;;;3.60;61.70;;;3.86;53.76;97683.41;6234389;23;20306;-34
2022/03/03 10:13:51;;;;;;;27.37;16.90;;;3.70;61.40;;;3.90;53.97;97687.47;6245727;23;20018;-34
2022/03/03 10:16:26;;;;;;;29.60;16.63;;;3.80;62.30;;;3.93;54.48;97689.84;6234080;23;20038;-34
2022/03/03 10:19:04;;;;;;;32.03;17.80;;;3.80;61.70;;;4.00;54.28;97692.88;6244892;23;20024;-34
2022/03/03 10:21:37;;;;;;;30.47;17.13;;;3.90;61.80;;;4.07;54.08;97692.28;6235668;23;20024;-34
2022/03/03 10:24:21;;;;;;;25.27;16.33;;;4.00;61.70;;;4.16;53.99;97700.41;6246073;23;20024;-34
2022/03/03 10:27:04;;;;;;;28.75;17.70;;;4.10;61.10;;;4.22;54.07;97697.28;6245727;23;20024;-34
2022/03/03 10:29:33;;;;;;;26.47;16.57;;;4.10;61.20;;;4.23;53.99;97693.72;6246706;23;20042;-34
2022/03/03 10:32:02;;;;;;;31.43;17.53;;;4.10;61.30;;;4.29;53.64;97682.69;6234557;23;20016;-34
2022/03/03 10:34:37;;;;;;;29.97;19.17;;;4.20;61.20;;;4.31;53.60;97678.97;6236267;23;20221;-34
2022/03/03 10:37:10;;;;;;;28.30;17.27;;;4.20;61.30;;;4.32;53.69;97688.56;6245329;23;20026;-35